createdAt,value
2017-07-24T00:00:58.679Z,1008.13
2017-07-24T00:01:58.706Z,1008.09
2017-07-24T00:02:58.726Z,1008.05
2017-07-24T00:03:58.753Z,1008.05
2017-07-24T00:04:58.776Z,1008.04
2017-07-24T00:05:58.802Z,1008.01
2017-07-24T00:06:58.824Z,1008.02
2017-07-24T00:07:58.853Z,1008
2017-07-24T00:08:58.874Z,1008.04
2017-07-24T00:09:58.898Z,1008.05
2017-07-24T00:11:58.944Z,1008.06
2017-07-24T00:12:58.972Z,1008.08
2017-07-24T00:13:58.996Z,1008.07
2017-07-24T00:14:59.019Z,1008.04
2017-07-24T00:15:59.043Z,1008.05
2017-07-24T00:16:59.067Z,1008.02
2017-07-24T00:17:59.086Z,1008.02
2017-07-24T00:18:59.117Z,1007.99
2017-07-24T00:19:59.140Z,1008
2017-07-24T00:20:59.162Z,1007.96
2017-07-24T00:21:59.191Z,1007.96
2017-07-24T00:22:59.214Z,1008
2017-07-24T00:23:59.238Z,1007.95
2017-07-24T00:24:59.259Z,1007.94
2017-07-24T00:26:59.311Z,1007.91
2017-07-24T00:27:59.334Z,1007.91
2017-07-24T00:28:59.357Z,1007.95
2017-07-24T00:29:59.380Z,1007.89
2017-07-24T00:30:59.409Z,1007.89
2017-07-24T00:31:59.432Z,1007.87
2017-07-24T00:32:59.453Z,1007.82
2017-07-24T00:33:59.482Z,1007.84
2017-07-24T00:34:59.501Z,1007.83
2017-07-24T00:35:59.527Z,1007.84
2017-07-24T00:36:59.553Z,1007.8
2017-07-24T00:37:59.577Z,1007.8
2017-07-24T00:38:59.603Z,1007.8
2017-07-24T00:39:59.626Z,1007.79
2017-07-24T00:40:59.650Z,1007.78
2017-07-24T00:41:59.675Z,1007.74
2017-07-24T00:42:59.698Z,1007.74
2017-07-24T00:43:59.722Z,1007.72
2017-07-24T00:44:59.745Z,1007.71
2017-07-24T00:45:59.771Z,1007.7
2017-07-24T00:46:59.795Z,1007.72
2017-07-24T00:47:59.819Z,1007.69
2017-07-24T00:48:59.842Z,1007.68
2017-07-24T00:49:59.866Z,1007.7
2017-07-24T00:50:59.894Z,1007.68
2017-07-24T00:51:59.915Z,1007.69
2017-07-24T00:52:59.938Z,1007.68
2017-07-24T00:53:59.965Z,1007.69
2017-07-24T00:54:59.987Z,1007.69
2017-07-24T00:56:00.016Z,1007.67
2017-07-24T00:57:00.036Z,1007.67
2017-07-24T00:59:00.082Z,1007.7
2017-07-24T01:00:00.111Z,1007.67
2017-07-24T01:01:00.134Z,1007.69
2017-07-24T01:02:00.160Z,1007.72
2017-07-24T01:03:00.179Z,1007.7
2017-07-24T01:04:00.209Z,1007.69
2017-07-24T01:05:00.231Z,1007.71
2017-07-24T01:06:00.252Z,1007.69
2017-07-24T01:07:00.280Z,1007.69
2017-07-24T01:08:00.303Z,1007.67
2017-07-24T01:09:00.327Z,1007.65
2017-07-24T01:10:00.350Z,1007.63
2017-07-24T01:11:00.379Z,1007.61
2017-07-24T01:12:00.403Z,1007.62
2017-07-24T01:13:00.423Z,1007.63
2017-07-24T01:15:00.475Z,1007.63
2017-07-24T01:16:00.496Z,1007.64
2017-07-24T01:17:00.523Z,1007.62
2017-07-24T01:18:00.546Z,1007.64
2017-07-24T01:19:00.568Z,1007.59
2017-07-24T01:20:00.594Z,1007.6
2017-07-24T01:21:00.620Z,1007.56
2017-07-24T01:22:00.640Z,1007.54
2017-07-24T01:23:00.668Z,1007.51
2017-07-24T01:24:00.689Z,1007.52
2017-07-24T01:25:00.715Z,1007.49
2017-07-24T01:26:00.738Z,1007.52
2017-07-24T01:27:00.764Z,1007.52
2017-07-24T01:28:00.786Z,1007.53
2017-07-24T01:29:00.811Z,1007.53
2017-07-24T01:31:00.860Z,1007.56
2017-07-24T01:32:00.878Z,1007.56
2017-07-24T01:33:00.907Z,1007.54
2017-07-24T01:34:00.935Z,1007.57
2017-07-24T01:35:00.956Z,1007.52
2017-07-24T01:36:00.981Z,1007.52
2017-07-24T01:37:01.004Z,1007.53
2017-07-24T01:38:01.028Z,1007.5
2017-07-24T01:39:01.053Z,1007.51
2017-07-24T01:40:01.078Z,1007.49
2017-07-24T01:41:01.099Z,1007.49
2017-07-24T01:42:01.123Z,1007.48
2017-07-24T01:43:01.150Z,1007.44
2017-07-24T01:44:01.176Z,1007.41
2017-07-24T01:45:01.198Z,1007.39
2017-07-24T01:47:01.247Z,1007.36
2017-07-24T01:48:01.271Z,1007.33
2017-07-24T01:49:01.289Z,1007.35
2017-07-24T01:50:01.317Z,1007.36
2017-07-24T01:51:01.342Z,1007.39
2017-07-24T01:52:01.368Z,1007.4
2017-07-24T01:53:01.390Z,1007.44
2017-07-24T01:54:01.416Z,1007.37
2017-07-24T01:55:01.439Z,1007.39
2017-07-24T01:56:01.461Z,1007.4
2017-07-24T01:57:01.487Z,1007.34
2017-07-24T01:58:01.513Z,1007.36
2017-07-24T01:59:01.534Z,1007.33
2017-07-24T02:00:01.561Z,1007.29
2017-07-24T02:02:01.610Z,1007.29
2017-07-24T02:03:01.633Z,1007.24
2017-07-24T02:04:01.656Z,1007.23
2017-07-24T02:05:01.686Z,1007.24
2017-07-24T02:06:01.705Z,1007.22
2017-07-24T02:07:01.731Z,1007.18
2017-07-24T02:08:01.752Z,1007.23
2017-07-24T02:09:01.776Z,1007.27
2017-07-24T02:10:01.801Z,1007.25
2017-07-24T02:11:01.825Z,1007.24
2017-07-24T02:12:01.850Z,1007.22
2017-07-24T02:13:01.924Z,1007.24
2017-07-24T02:14:01.898Z,1007.17
2017-07-24T02:15:01.920Z,1007.17
2017-07-24T02:16:01.946Z,1007.16
2017-07-24T02:17:01.966Z,1007.17
2017-07-24T02:18:01.992Z,1007.11
2017-07-24T02:19:02.013Z,1007.12
2017-07-24T02:20:02.043Z,1007.11
2017-07-24T02:21:02.064Z,1007.08
2017-07-24T02:22:02.089Z,1007.07
2017-07-24T02:23:02.110Z,1007.1
2017-07-24T02:24:02.140Z,1007.1
2017-07-24T02:25:02.160Z,1007.07
2017-07-24T02:26:02.187Z,1007.08
2017-07-24T02:27:02.206Z,1007.04
2017-07-24T02:28:02.232Z,1007
2017-07-24T02:29:02.261Z,1007.02
2017-07-24T02:30:02.279Z,1006.99
2017-07-24T02:31:02.307Z,1007.02
2017-07-24T02:32:02.326Z,1007
2017-07-24T02:34:02.427Z,1006.95
2017-07-24T02:35:02.402Z,1006.96
2017-07-24T02:36:02.424Z,1006.95
2017-07-24T02:37:02.449Z,1006.92
2017-07-24T02:38:02.475Z,1006.95
2017-07-24T02:39:02.498Z,1006.91
2017-07-24T02:40:02.522Z,1006.91
2017-07-24T02:41:02.541Z,1006.95
2017-07-24T02:42:02.567Z,1006.93
2017-07-24T02:43:02.591Z,1006.91
2017-07-24T02:44:02.619Z,1006.89
2017-07-24T02:45:02.643Z,1006.89
2017-07-24T02:46:02.667Z,1006.86
2017-07-24T02:47:02.690Z,1006.88
2017-07-24T02:48:02.717Z,1006.85
2017-07-24T02:50:02.763Z,1006.83
2017-07-24T02:51:02.784Z,1006.79
2017-07-24T02:52:02.811Z,1006.8
2017-07-24T02:53:02.834Z,1006.78
2017-07-24T02:54:02.857Z,1006.78
2017-07-24T02:55:02.933Z,1006.76
2017-07-24T02:56:02.906Z,1006.79
2017-07-24T02:57:02.930Z,1006.78
2017-07-24T02:58:02.953Z,1006.79
2017-07-24T02:59:02.980Z,1006.81
2017-07-24T03:00:02.998Z,1006.79
2017-07-24T03:01:03.027Z,1006.79
2017-07-24T03:02:03.045Z,1006.77
2017-07-24T03:03:03.073Z,1006.77
2017-07-24T03:04:03.098Z,1006.76
2017-07-24T03:06:03.143Z,1006.77
2017-07-24T03:07:03.168Z,1006.7
2017-07-24T03:08:03.195Z,1006.71
2017-07-24T03:09:03.215Z,1006.71
2017-07-24T03:10:03.242Z,1006.68
2017-07-24T03:11:03.266Z,1006.66
2017-07-24T03:12:03.290Z,1006.65
2017-07-24T03:13:03.310Z,1006.65
2017-07-24T03:14:03.343Z,1006.63
2017-07-24T03:15:03.357Z,1006.63
2017-07-24T03:16:03.380Z,1006.61
2017-07-24T03:17:03.409Z,1006.62
2017-07-24T03:18:03.435Z,1006.61
2017-07-24T03:19:03.457Z,1006.59
2017-07-24T03:20:03.477Z,1006.55
2017-07-24T03:22:03.529Z,1006.57
2017-07-24T03:23:03.551Z,1006.57
2017-07-24T03:24:03.576Z,1006.53
2017-07-24T03:25:03.597Z,1006.52
2017-07-24T03:26:03.624Z,1006.56
2017-07-24T03:27:03.647Z,1006.54
2017-07-24T03:28:03.672Z,1006.55
2017-07-24T03:29:03.695Z,1006.56
2017-07-24T03:30:03.721Z,1006.52
2017-07-24T03:31:03.739Z,1006.51
2017-07-24T03:32:03.766Z,1006.52
2017-07-24T03:33:03.790Z,1006.52
2017-07-24T03:34:03.817Z,1006.54
2017-07-24T03:35:03.841Z,1006.47
2017-07-24T03:37:03.889Z,1006.5
2017-07-24T03:38:03.908Z,1006.47
2017-07-24T03:39:03.933Z,1006.49
2017-07-24T03:40:03.960Z,1006.49
2017-07-24T03:41:03.986Z,1006.48
2017-07-24T03:42:04.005Z,1006.52
2017-07-24T03:43:04.029Z,1006.48
2017-07-24T03:44:04.057Z,1006.52
2017-07-24T03:45:04.079Z,1006.5
2017-07-24T03:46:04.104Z,1006.48
2017-07-24T03:47:04.129Z,1006.49
2017-07-24T03:48:04.149Z,1006.48
2017-07-24T03:49:04.177Z,1006.42
2017-07-24T03:50:04.200Z,1006.45
2017-07-24T03:51:04.225Z,1006.43
2017-07-24T03:52:04.249Z,1006.47
2017-07-24T03:53:04.272Z,1006.42
2017-07-24T03:54:04.298Z,1006.39
2017-07-24T03:55:04.319Z,1006.4
2017-07-24T03:56:04.342Z,1006.41
2017-07-24T03:57:04.368Z,1006.4
2017-07-24T03:58:04.393Z,1006.39
2017-07-24T03:59:04.419Z,1006.42
2017-07-24T04:00:04.439Z,1006.42
2017-07-24T04:01:04.461Z,1006.44
2017-07-24T04:02:04.486Z,1006.41
2017-07-24T04:03:04.513Z,1006.37
2017-07-24T04:04:04.539Z,1006.37
2017-07-24T04:05:04.562Z,1006.37
2017-07-24T04:06:04.585Z,1006.32
2017-07-24T04:07:04.609Z,1006.31
2017-07-24T04:09:04.655Z,1006.26
2017-07-24T04:10:04.681Z,1006.25
2017-07-24T04:11:04.701Z,1006.23
2017-07-24T04:12:04.729Z,1006.22
2017-07-24T04:13:04.753Z,1006.22
2017-07-24T04:14:04.776Z,1006.23
2017-07-24T04:15:04.802Z,1006.19
2017-07-24T04:16:04.820Z,1006.22
2017-07-24T04:17:04.850Z,1006.2
2017-07-24T04:18:04.868Z,1006.23
2017-07-24T04:19:04.896Z,1006.25
2017-07-24T04:20:04.922Z,1006.23
2017-07-24T04:21:04.946Z,1006.22
2017-07-24T04:22:04.969Z,1006.21
2017-07-24T04:23:04.997Z,1006.24
2017-07-24T04:25:05.042Z,1006.23
2017-07-24T04:26:05.065Z,1006.22
2017-07-24T04:27:05.093Z,1006.18
2017-07-24T04:28:05.118Z,1006.21
2017-07-24T04:29:05.142Z,1006.24
2017-07-24T04:30:05.165Z,1006.19
2017-07-24T04:31:05.188Z,1006.24
2017-07-24T04:32:05.210Z,1006.21
2017-07-24T04:33:05.238Z,1006.17
2017-07-24T04:34:05.261Z,1006.19
2017-07-24T04:35:05.283Z,1006.17
2017-07-24T04:36:05.311Z,1006.15
2017-07-24T04:37:05.332Z,1006.14
2017-07-24T04:38:05.357Z,1006.18
2017-07-24T04:39:05.382Z,1006.17
2017-07-24T04:41:05.432Z,1006.21
2017-07-24T04:42:05.453Z,1006.19
2017-07-24T04:43:05.482Z,1006.16
2017-07-24T04:44:05.510Z,1006.11
2017-07-24T04:45:05.532Z,1006.14
2017-07-24T04:46:05.551Z,1006.12
2017-07-24T04:47:05.579Z,1006.16
2017-07-24T04:48:05.603Z,1006.16
2017-07-24T04:49:05.629Z,1006.12
2017-07-24T04:50:05.657Z,1006.13
2017-07-24T04:51:05.681Z,1006.23
2017-07-24T04:52:05.704Z,1006.34
2017-07-24T04:53:05.725Z,1006.34
2017-07-24T04:54:05.754Z,1006.36
2017-07-24T04:55:05.777Z,1006.23
2017-07-24T04:57:05.832Z,1006.14
2017-07-24T04:58:05.854Z,1006.12
2017-07-24T04:59:05.885Z,1006.08
2017-07-24T05:00:05.910Z,1006.08
2017-07-24T05:01:05.937Z,1006.1
2017-07-24T05:02:05.958Z,1006.11
2017-07-24T05:03:05.988Z,1006.11
2017-07-24T05:04:06.014Z,1006.1
2017-07-24T05:05:06.043Z,1006.02
2017-07-24T05:06:06.066Z,1006.02
2017-07-24T05:07:06.096Z,1006
2017-07-24T05:08:06.120Z,1006
2017-07-24T05:09:06.154Z,1005.99
2017-07-24T05:10:06.182Z,1005.95
2017-07-24T05:12:06.234Z,1005.96
2017-07-24T05:13:06.262Z,1005.91
2017-07-24T05:14:06.290Z,1005.96
2017-07-24T05:15:06.315Z,1005.91
2017-07-24T05:16:06.347Z,1005.96
2017-07-24T05:17:06.372Z,1005.98
2017-07-24T05:18:06.400Z,1005.96
2017-07-24T05:19:06.428Z,1005.97
2017-07-24T05:20:06.455Z,1005.98
2017-07-24T05:21:06.481Z,1006.12
2017-07-24T05:22:06.510Z,1006.05
2017-07-24T05:23:06.534Z,1006.04
2017-07-24T05:24:06.567Z,1006.12
2017-07-24T05:25:06.594Z,1006.08
2017-07-24T05:26:06.624Z,1006.24
2017-07-24T05:27:06.651Z,1006.12
2017-07-24T05:28:06.680Z,1006.03
2017-07-24T05:29:06.705Z,1005.96
2017-07-24T05:30:06.735Z,1006.01
2017-07-24T05:31:06.762Z,1006.05
2017-07-24T05:32:06.795Z,1006.04
2017-07-24T05:33:06.819Z,1005.99
2017-07-24T05:34:06.853Z,1005.94
2017-07-24T05:35:06.878Z,1005.93
2017-07-24T05:36:06.910Z,1005.92
2017-07-24T05:37:06.940Z,1005.94
2017-07-24T05:38:06.968Z,1005.96
2017-07-24T05:39:06.994Z,1005.95
2017-07-24T05:40:07.017Z,1005.93
2017-07-24T05:41:07.050Z,1005.92
2017-07-24T05:42:07.078Z,1005.95
2017-07-24T05:44:07.137Z,1005.91
2017-07-24T05:45:07.167Z,1005.91
2017-07-24T05:46:07.192Z,1005.88
2017-07-24T05:47:07.220Z,1005.89
2017-07-24T05:48:07.250Z,1005.85
2017-07-24T05:49:07.276Z,1005.85
2017-07-24T05:50:07.304Z,1005.8
2017-07-24T05:51:07.330Z,1005.78
2017-07-24T05:52:07.362Z,1005.83
2017-07-24T05:53:07.389Z,1005.84
2017-07-24T05:54:07.417Z,1005.76
2017-07-24T05:55:07.442Z,1005.82
2017-07-24T05:56:07.476Z,1005.78
2017-07-24T05:57:07.501Z,1005.78
2017-07-24T05:58:07.529Z,1005.78
2017-07-24T06:00:07.600Z,1005.81
2017-07-24T06:01:07.612Z,1005.81
2017-07-24T06:02:07.640Z,1005.82
2017-07-24T06:03:07.666Z,1005.88
2017-07-24T06:04:07.695Z,1005.88
2017-07-24T06:05:07.725Z,1005.92
2017-07-24T06:06:07.751Z,1005.89
2017-07-24T06:07:07.779Z,1005.93
2017-07-24T06:08:07.804Z,1005.94
2017-07-24T06:09:07.835Z,1005.87
2017-07-24T06:10:07.861Z,1005.92
2017-07-24T06:11:07.893Z,1005.92
2017-07-24T06:12:07.916Z,1006.02
2017-07-24T06:13:07.949Z,1006.08
2017-07-24T06:14:07.979Z,1006.08
2017-07-24T06:16:08.036Z,1005.99
2017-07-24T06:17:08.062Z,1005.92
2017-07-24T06:18:08.098Z,1005.97
2017-07-24T06:19:08.120Z,1005.96
2017-07-24T06:20:08.154Z,1005.96
2017-07-24T06:21:08.187Z,1005.91
2017-07-24T06:22:08.218Z,1005.95
2017-07-24T06:23:08.241Z,1006
2017-07-24T06:24:08.277Z,1006.03
2017-07-24T06:25:08.306Z,1006.02
2017-07-24T06:26:08.335Z,1005.95
2017-07-24T06:27:08.370Z,1005.88
2017-07-24T06:28:08.397Z,1005.91
2017-07-24T06:29:08.423Z,1005.94
2017-07-24T06:30:08.455Z,1006.03
2017-07-24T06:32:08.518Z,1005.87
2017-07-24T06:33:08.547Z,1005.84
2017-07-24T06:34:08.578Z,1005.89
2017-07-24T06:35:08.609Z,1005.85
2017-07-24T06:36:08.640Z,1005.84
2017-07-24T06:37:08.667Z,1005.84
2017-07-24T06:38:08.700Z,1005.83
2017-07-24T06:39:08.733Z,1005.83
2017-07-24T06:40:08.759Z,1005.83
2017-07-24T06:41:08.794Z,1005.87
2017-07-24T06:42:08.822Z,1005.91
2017-07-24T06:43:08.855Z,1005.87
2017-07-24T06:44:08.883Z,1005.89
2017-07-24T06:45:08.916Z,1005.88
2017-07-24T06:47:08.978Z,1005.88
2017-07-24T06:48:09.008Z,1005.98
2017-07-24T06:49:09.039Z,1005.99
2017-07-24T06:50:09.070Z,1006
2017-07-24T06:51:09.098Z,1006.04
2017-07-24T06:52:09.131Z,1006.03
2017-07-24T06:53:09.167Z,1006.08
2017-07-24T06:54:09.194Z,1006.05
2017-07-24T06:55:09.226Z,1006.12
2017-07-24T06:56:09.255Z,1006.03
2017-07-24T06:57:09.288Z,1005.99
2017-07-24T06:58:09.320Z,1005.99
2017-07-24T06:59:09.347Z,1006.06
2017-07-24T07:00:09.394Z,1006.11
2017-07-24T07:01:09.415Z,1006.26
2017-07-24T07:02:09.444Z,1006.2
2017-07-24T07:03:09.472Z,1006.4
2017-07-24T07:04:09.507Z,1006.34
2017-07-24T07:05:09.542Z,1006.33
2017-07-24T07:06:09.571Z,1006.59
2017-07-24T07:07:09.605Z,1006.65
2017-07-24T07:08:09.636Z,1006.79
2017-07-24T07:09:09.669Z,1006.95
2017-07-24T07:10:09.696Z,1007.01
2017-07-24T07:11:09.735Z,1006.78
2017-07-24T07:12:09.763Z,1006.47
2017-07-24T07:13:09.801Z,1006.45
2017-07-24T07:14:09.833Z,1006.49
2017-07-24T07:15:09.863Z,1006.53
2017-07-24T07:16:09.900Z,1006.52
2017-07-24T07:17:09.931Z,1006.62
2017-07-24T07:19:09.997Z,1006.64
2017-07-24T07:20:10.034Z,1006.58
2017-07-24T07:21:10.063Z,1006.77
2017-07-24T07:22:10.103Z,1006.76
2017-07-24T07:23:10.130Z,1006.86
2017-07-24T07:24:10.168Z,1006.78
2017-07-24T07:25:10.203Z,1006.68
2017-07-24T07:26:10.233Z,1006.61
2017-07-24T07:27:10.272Z,1006.71
2017-07-24T07:28:10.301Z,1006.59
2017-07-24T07:29:10.339Z,1006.58
2017-07-24T07:30:10.372Z,1006.48
2017-07-24T07:31:10.411Z,1006.49
2017-07-24T07:32:10.439Z,1006.48
2017-07-24T07:33:10.476Z,1006.39
2017-07-24T07:35:10.544Z,1006.45
2017-07-24T07:36:10.580Z,1006.51
2017-07-24T07:37:10.616Z,1006.61
2017-07-24T07:38:10.650Z,1006.51
2017-07-24T07:39:10.684Z,1006.65
2017-07-24T07:40:10.724Z,1006.57
2017-07-24T07:41:10.753Z,1006.47
2017-07-24T07:42:10.790Z,1006.48
2017-07-24T07:43:10.820Z,1006.44
2017-07-24T07:44:10.859Z,1006.4
2017-07-24T07:45:10.893Z,1006.4
2017-07-24T07:46:10.927Z,1006.34
2017-07-24T07:47:10.967Z,1006.3
2017-07-24T07:48:11.001Z,1006.26
2017-07-24T07:49:11.034Z,1006.1
2017-07-24T07:51:11.103Z,1005.88
2017-07-24T07:52:11.148Z,1005.84
2017-07-24T07:53:11.177Z,1005.79
2017-07-24T07:54:11.213Z,1005.84
2017-07-24T07:55:11.249Z,1005.86
2017-07-24T07:56:11.282Z,1005.89
2017-07-24T07:57:11.325Z,1005.92
2017-07-24T07:58:11.356Z,1005.94
2017-07-24T07:59:11.394Z,1005.97
2017-07-24T08:00:11.426Z,1006.01
2017-07-24T08:01:11.467Z,1006
2017-07-24T08:02:11.497Z,1005.92
2017-07-24T08:03:11.539Z,1005.85
2017-07-24T08:04:11.569Z,1005.87
2017-07-24T08:05:11.603Z,1005.95
2017-07-24T08:07:11.676Z,1005.9
2017-07-24T08:08:11.715Z,1005.93
2017-07-24T08:09:11.752Z,1005.89
2017-07-24T08:10:11.790Z,1005.87
2017-07-24T08:11:11.821Z,1005.79
2017-07-24T08:12:11.911Z,1005.84
2017-07-24T08:13:11.898Z,1005.91
2017-07-24T08:14:11.928Z,1006.04
2017-07-24T08:15:11.970Z,1006.08
2017-07-24T08:16:12.005Z,1006.08
2017-07-24T08:17:12.044Z,1006
2017-07-24T08:18:12.081Z,1005.99
2017-07-24T08:19:12.112Z,1005.98
2017-07-24T08:20:12.151Z,1005.94
2017-07-24T08:22:12.221Z,1005.91
2017-07-24T08:23:12.260Z,1005.89
2017-07-24T08:24:12.297Z,1005.88
2017-07-24T08:25:12.333Z,1005.9
2017-07-24T08:26:12.372Z,1005.86
2017-07-24T08:27:12.409Z,1005.84
2017-07-24T08:28:12.441Z,1005.85
2017-07-24T08:29:12.479Z,1005.87
2017-07-24T08:30:12.514Z,1005.77
2017-07-24T08:31:12.553Z,1005.74
2017-07-24T08:32:12.591Z,1005.72
2017-07-24T08:33:12.628Z,1005.7
2017-07-24T08:34:12.664Z,1005.72
2017-07-24T08:35:12.700Z,1005.69
2017-07-24T08:36:12.735Z,1005.65
2017-07-24T08:37:12.773Z,1005.69
2017-07-24T08:38:12.810Z,1005.82
2017-07-24T08:39:12.844Z,1005.97
2017-07-24T08:40:12.884Z,1006
2017-07-24T08:41:12.918Z,1005.99
2017-07-24T08:42:12.958Z,1005.96
2017-07-24T08:43:12.993Z,1005.83
2017-07-24T08:44:13.030Z,1005.8
2017-07-24T08:45:13.064Z,1005.82
2017-07-24T08:46:13.100Z,1005.79
2017-07-24T08:47:13.144Z,1005.69
2017-07-24T08:48:13.174Z,1005.72
2017-07-24T08:49:13.214Z,1005.65
2017-07-24T08:50:13.246Z,1005.6
2017-07-24T08:51:13.284Z,1005.59
2017-07-24T08:52:13.316Z,1005.66
2017-07-24T08:54:13.396Z,1005.61
2017-07-24T08:55:13.428Z,1005.49
2017-07-24T08:56:13.464Z,1005.43
2017-07-24T08:57:13.502Z,1005.38
2017-07-24T08:58:13.540Z,1005.35
2017-07-24T08:59:13.578Z,1005.42
2017-07-24T09:00:13.611Z,1005.39
2017-07-24T09:01:13.649Z,1005.34
2017-07-24T09:02:13.686Z,1005.38
2017-07-24T09:03:13.719Z,1005.36
2017-07-24T09:04:13.759Z,1005.34
2017-07-24T09:05:13.808Z,1005.31
2017-07-24T09:06:13.827Z,1005.3
2017-07-24T09:07:13.866Z,1005.28
2017-07-24T09:08:13.899Z,1005.22
2017-07-24T09:10:13.975Z,1005.25
2017-07-24T09:11:14.010Z,1005.2
2017-07-24T09:12:14.044Z,1005.16
2017-07-24T09:13:14.083Z,1005.17
2017-07-24T09:14:14.115Z,1005.15
2017-07-24T09:15:14.153Z,1005.13
2017-07-24T09:16:14.191Z,1005.14
2017-07-24T09:17:14.226Z,1005.13
2017-07-24T09:18:14.260Z,1005.11
2017-07-24T09:19:14.295Z,1005.12
2017-07-24T09:20:14.331Z,1005.15
2017-07-24T09:21:14.369Z,1005.13
2017-07-24T09:22:14.401Z,1005.14
2017-07-24T09:23:14.437Z,1005.09
2017-07-24T09:24:14.475Z,1005.07
2017-07-24T09:26:14.545Z,1005.04
2017-07-24T09:27:14.581Z,1005.01
2017-07-24T09:28:14.617Z,1004.99
2017-07-24T09:29:14.655Z,1005.03
2017-07-24T09:30:14.689Z,1005.06
2017-07-24T09:31:14.724Z,1005.03
2017-07-24T09:32:14.760Z,1005.02
2017-07-24T09:33:14.796Z,1005.01
2017-07-24T09:34:14.826Z,1005.01
2017-07-24T09:35:14.867Z,1005.04
2017-07-24T09:36:14.900Z,1005.02
2017-07-24T09:37:14.933Z,1004.98
2017-07-24T09:38:14.971Z,1004.99
2017-07-24T09:39:15.004Z,1004.96
2017-07-24T09:40:15.040Z,1004.95
2017-07-24T09:42:15.109Z,1004.92
2017-07-24T09:43:15.145Z,1004.96
2017-07-24T09:44:15.180Z,1004.93
2017-07-24T09:45:15.516Z,1004.89
2017-07-24T09:46:15.251Z,1004.92
2017-07-24T09:47:15.283Z,1004.93
2017-07-24T09:48:15.318Z,1004.92
2017-07-24T09:49:15.353Z,1004.93
2017-07-24T09:50:15.385Z,1004.89
2017-07-24T09:51:15.421Z,1004.88
2017-07-24T09:52:15.454Z,1004.9
2017-07-24T09:53:15.492Z,1004.9
2017-07-24T09:54:15.525Z,1004.91
2017-07-24T09:55:15.557Z,1004.85
2017-07-24T09:57:15.625Z,1004.87
2017-07-24T09:58:15.659Z,1004.83
2017-07-24T09:59:15.693Z,1004.8
2017-07-24T10:00:15.728Z,1004.81
2017-07-24T10:01:15.758Z,1004.8
2017-07-24T10:02:15.796Z,1004.83
2017-07-24T10:03:15.832Z,1004.84
2017-07-24T10:04:15.867Z,1004.84
2017-07-24T10:05:15.898Z,1004.83
2017-07-24T10:06:15.932Z,1004.82
2017-07-24T10:07:15.965Z,1004.81
2017-07-24T10:08:16.001Z,1004.81
2017-07-24T10:09:16.036Z,1004.82
2017-07-24T10:10:16.069Z,1004.81
2017-07-24T10:11:16.103Z,1004.83
2017-07-24T10:12:16.130Z,1004.82
2017-07-24T10:13:16.167Z,1004.78
2017-07-24T10:14:16.199Z,1004.78
2017-07-24T10:15:16.237Z,1004.78
2017-07-24T10:16:16.263Z,1004.85
2017-07-24T10:17:16.306Z,1004.83
2017-07-24T10:18:16.335Z,1004.8
2017-07-24T10:19:16.368Z,1004.82
2017-07-24T10:20:16.400Z,1004.83
2017-07-24T10:21:16.435Z,1004.84
2017-07-24T10:22:16.472Z,1004.81
2017-07-24T10:23:16.501Z,1004.76
2017-07-24T10:24:16.535Z,1004.74
2017-07-24T10:25:16.566Z,1004.69
2017-07-24T10:26:16.603Z,1004.66
2017-07-24T10:27:16.636Z,1004.59
2017-07-24T10:29:16.706Z,1004.58
2017-07-24T10:30:16.738Z,1004.51
2017-07-24T10:31:16.768Z,1004.49
2017-07-24T10:32:16.806Z,1004.47
2017-07-24T10:33:16.832Z,1004.52
2017-07-24T10:34:16.870Z,1004.49
2017-07-24T10:35:16.903Z,1004.48
2017-07-24T10:36:16.938Z,1004.53
2017-07-24T10:37:16.970Z,1004.47
2017-07-24T10:38:17.006Z,1004.5
2017-07-24T10:39:17.037Z,1004.44
2017-07-24T10:40:17.071Z,1004.43
2017-07-24T10:41:17.105Z,1004.38
2017-07-24T10:42:17.133Z,1004.39
2017-07-24T10:43:17.169Z,1004.38
2017-07-24T10:45:17.235Z,1004.38
2017-07-24T10:46:17.265Z,1004.37
2017-07-24T10:47:17.302Z,1004.39
2017-07-24T10:48:17.337Z,1004.36
2017-07-24T10:49:17.370Z,1004.34
2017-07-24T10:50:17.397Z,1004.34
2017-07-24T10:51:17.430Z,1004.33
2017-07-24T10:52:17.468Z,1004.31
2017-07-24T10:53:17.501Z,1004.3
2017-07-24T10:54:17.529Z,1004.29
2017-07-24T10:55:17.566Z,1004.27
2017-07-24T10:56:17.598Z,1004.25
2017-07-24T10:57:17.629Z,1004.23
2017-07-24T10:58:17.665Z,1004.24
2017-07-24T10:59:17.698Z,1004.28
2017-07-24T11:01:17.760Z,1004.21
2017-07-24T11:02:17.797Z,1004.15
2017-07-24T11:03:17.823Z,1004.09
2017-07-24T11:04:17.859Z,1004.1
2017-07-24T11:05:17.889Z,1004.12
2017-07-24T11:06:17.925Z,1004.11
2017-07-24T11:07:17.969Z,1004.1
2017-07-24T11:08:17.987Z,1004.09
2017-07-24T11:09:18.025Z,1004.09
2017-07-24T11:10:18.058Z,1004.05
2017-07-24T11:11:18.085Z,1004.02
2017-07-24T11:12:18.123Z,1004.07
2017-07-24T11:13:18.151Z,1004.03
2017-07-24T11:14:18.181Z,1004.07
2017-07-24T11:15:18.212Z,1004.04
2017-07-24T11:17:18.284Z,1004.04
2017-07-24T11:18:18.314Z,1004
2017-07-24T11:19:18.342Z,1004.03
2017-07-24T11:20:18.375Z,1004.01
2017-07-24T11:21:18.411Z,1004.03
2017-07-24T11:22:18.437Z,1004.01
2017-07-24T11:23:18.475Z,1003.99
2017-07-24T11:24:18.503Z,1003.93
2017-07-24T11:25:18.537Z,1003.93
2017-07-24T11:26:18.571Z,1003.92
2017-07-24T11:27:18.609Z,1003.9
2017-07-24T11:28:18.634Z,1003.87
2017-07-24T11:29:18.712Z,1003.87
2017-07-24T11:30:18.699Z,1003.83
2017-07-24T11:32:18.763Z,1003.84
2017-07-24T11:33:18.790Z,1003.8
2017-07-24T11:34:19.030Z,1003.82
2017-07-24T11:35:18.857Z,1003.8
2017-07-24T11:36:18.886Z,1003.77
2017-07-24T11:37:18.920Z,1003.71
2017-07-24T11:38:18.952Z,1003.7
2017-07-24T11:39:18.986Z,1003.67
2017-07-24T11:40:19.017Z,1003.67
2017-07-24T11:41:19.051Z,1003.68
2017-07-24T11:42:19.080Z,1003.68
2017-07-24T11:43:19.132Z,1003.68
2017-07-24T11:44:19.144Z,1003.67
2017-07-24T11:45:19.175Z,1003.64
2017-07-24T11:46:19.208Z,1003.64
2017-07-24T11:47:19.240Z,1003.63
2017-07-24T11:48:19.266Z,1003.62
2017-07-24T11:49:19.308Z,1003.58
2017-07-24T11:50:19.331Z,1003.63
2017-07-24T11:51:19.366Z,1003.61
2017-07-24T11:52:19.394Z,1003.62
2017-07-24T11:53:19.429Z,1003.57
2017-07-24T11:54:19.462Z,1003.57
2017-07-24T11:55:19.488Z,1003.54
2017-07-24T11:56:19.523Z,1003.52
2017-07-24T11:57:19.556Z,1003.5
2017-07-24T11:58:19.588Z,1003.5
2017-07-24T11:59:19.618Z,1003.47
2017-07-24T12:00:19.650Z,1003.48
2017-07-24T12:01:19.682Z,1003.46
2017-07-24T12:02:19.712Z,1003.48
2017-07-24T12:04:19.775Z,1003.47
2017-07-24T12:05:19.806Z,1003.44
2017-07-24T12:06:19.838Z,1003.45
2017-07-24T12:07:19.870Z,1003.42
2017-07-24T12:08:19.900Z,1003.44
2017-07-24T12:09:19.935Z,1003.44
2017-07-24T12:10:19.964Z,1003.45
2017-07-24T12:11:19.997Z,1003.44
2017-07-24T12:12:20.028Z,1003.46
2017-07-24T12:13:20.056Z,1003.46
2017-07-24T12:14:20.091Z,1003.48
2017-07-24T12:15:20.123Z,1003.47
2017-07-24T12:16:20.154Z,1003.48
2017-07-24T12:17:20.188Z,1003.46
2017-07-24T12:18:20.217Z,1003.47
2017-07-24T12:20:20.280Z,1003.46
2017-07-24T12:21:20.312Z,1003.43
2017-07-24T12:22:20.345Z,1003.43
2017-07-24T12:23:20.375Z,1003.4
2017-07-24T12:24:20.406Z,1003.37
2017-07-24T12:25:20.436Z,1003.4
2017-07-24T12:26:20.469Z,1003.4
2017-07-24T12:27:20.498Z,1003.37
2017-07-24T12:28:20.531Z,1003.34
2017-07-24T12:29:20.562Z,1003.33
2017-07-24T12:30:20.594Z,1003.3
2017-07-24T12:31:20.625Z,1003.29
2017-07-24T12:32:20.657Z,1003.27
2017-07-24T12:33:20.685Z,1003.27
2017-07-24T12:34:20.720Z,1003.25
2017-07-24T12:36:20.782Z,1003.22
2017-07-24T12:37:20.808Z,1003.22
2017-07-24T12:38:20.843Z,1003.23
2017-07-24T12:39:20.875Z,1003.25
2017-07-24T12:40:20.904Z,1003.19
2017-07-24T12:41:20.939Z,1003.23
2017-07-24T12:42:20.966Z,1003.2
2017-07-24T12:43:21.002Z,1003.21
2017-07-24T12:44:21.030Z,1003.19
2017-07-24T12:45:21.059Z,1003.22
2017-07-24T12:46:21.094Z,1003.2
2017-07-24T12:47:21.125Z,1003.19
2017-07-24T12:48:21.157Z,1003.2
2017-07-24T12:49:21.186Z,1003.19